Date,TemperatureHighF,TemperatureAvgF,TemperatureLowF,DewpointHighF,DewpointAvgF,DewpointLowF,HumidityHigh,HumidityAvg,HumidityLow,PressureMaxIn,PressureMinIn,WindSpeedMaxMPH,WindSpeedAvgMPH,GustSpeedMaxMPH,PrecipitationSumIn
2013-10-1,85.3,69.5,58.6,69.2,64.4,58.4,99,86,57,29.92,29.92,6,1,9,0.01
2013-10-2,85.8,73.1,62.2,69.6,65.7,61.7,99,81,50,29.92,29.92,5,1,8,0.00
2013-10-3,86.2,74.7,64.0,70.6,66.0,60.4,99,78,47,29.92,29.92,7,1,11,0.00
2013-10-4,81.7,68.5,64.8,69.9,66.3,64.2,99,93,68,29.92,29.92,4,0,7,0.00
2013-10-7,54.7,54.2,53.6,49.2,48.8,48.4,83,82,82,29.92,29.92,4,3,8,0.02
2013-10-8,79.5,63.3,50.5,58.3,52.9,47.1,89,72,45,29.92,29.92,8,2,11,0.00
2013-10-9,78.4,68.2,60.6,59.7,56.0,50.2,93,68,46,29.92,29.92,8,2,12,0.00
2013-10-10,83.7,67.3,56.5,65.0,59.6,55.4,99,80,44,29.92,29.92,6,0,8,0.00
2013-10-11,83.8,66.7,54.0,66.3,57.8,53.1,99,77,43,29.92,29.92,4,0,6,0.00
2013-10-12,83.1,66.9,52.3,63.8,58.5,51.6,99,79,47,29.92,29.92,6,1,11,0.00
2013-10-13,82.6,69.5,56.7,65.8,59.1,56.3,99,74,46,29.92,29.92,7,1,11,0.00
2013-10-14,83.1,70.0,60.4,64.8,61.5,58.5,99,77,47,29.92,29.92,4,1,8,0.00
2013-10-15,76.8,67.9,62.8,64.1,61.3,59.3,95,81,59,29.92,29.92,8,2,12,0.00
2013-10-16,67.6,65.0,63.0,66.4,63.6,60.6,99,95,90,29.92,29.92,8,2,13,0.70
2013-10-17,65.5,60.2,48.2,65.0,58.9,47.9,99,95,85,29.92,29.92,6,1,10,0.17
2013-10-18,68.0,54.1,45.1,61.7,49.5,44.3,99,87,55,29.92,29.92,4,0,8,0.01
2013-10-19,70.7,56.2,44.8,57.8,51.5,43.1,99,86,59,29.92,29.92,10,1,15,0.00
2013-10-20,69.3,51.3,38.3,48.1,40.0,29.8,99,73,28,29.92,29.92,5,1,49,0.00
2013-10-21,72.5,55.3,37.4,52.5,43.7,36.9,99,72,31,29.92,29.92,7,1,10,0.00
2013-10-22,67.8,56.0,48.9,56.4,52.1,48.7,99,88,65,29.92,29.92,7,1,8,0.00
2013-10-23,58.8,48.7,38.3,48.9,40.3,33.1,99,77,44,29.92,29.92,8,2,14,0.00
2013-10-24,62.6,48.5,37.4,44.1,41.1,-21.7,97,78,50,29.92,29.92,9,2,24,0.00
2013-10-25,54.9,41.2,29.8,35.4,27.1,19.8,82,61,30,29.92,29.92,8,2,12,0.00
2013-10-26,62.8,46.4,28.0,43.9,32.1,23.8,98,64,27,29.92,29.92,8,1,12,0.00
2013-10-27,70.3,59.6,50.4,54.8,49.8,42.8,87,71,54,29.92,29.92,6,1,11,0.00
2013-10-28,64.0,57.6,54.7,58.7,55.0,52.7,99,91,83,29.92,29.92,2,0,4,0.01
2013-10-29,77.2,63.5,53.2,63.4,58.3,52.7,99,85,63,29.92,29.92,6,1,10,0.00
2013-10-30,79.9,67.8,56.8,64.4,57.4,52.3,99,73,42,29.92,29.92,11,2,15,0.00
2013-10-31,73.6,67.7,63.1,68.1,61.8,55.9,99,82,70,29.92,29.92,21,5,26,0.28